createdAt,value
2018-12-22T00:00:26.964Z,1.40
2018-12-22T00:02:33.554Z,1.53
2018-12-22T00:04:39.994Z,1.73
2018-12-22T00:06:46.330Z,2.90
2018-12-22T00:08:52.609Z,1.57
2018-12-22T00:11:00.919Z,2.07
2018-12-22T00:13:07.342Z,1.63
2018-12-22T00:15:14.627Z,2.30
2018-12-22T00:17:21.752Z,2.40
2018-12-22T00:19:28.186Z,1.53
2018-12-22T00:21:35.186Z,2.40
2018-12-22T00:23:42.481Z,1.23
2018-12-22T00:25:49.723Z,1.93
2018-12-22T00:27:56.101Z,1.97
2018-12-22T00:30:03.407Z,1.70
2018-12-22T00:32:10.178Z,1.20
2018-12-22T00:34:16.972Z,1.30
2018-12-22T00:36:23.458Z,1.50
2018-12-22T00:38:31.617Z,1.40
2018-12-22T00:40:38.202Z,1.30
2018-12-22T00:42:44.518Z,2.03
2018-12-22T00:44:51.914Z,1.37
2018-12-22T00:46:58.282Z,1.93
2018-12-22T00:49:04.935Z,1.27
2018-12-22T00:51:11.454Z,1.80
2018-12-22T00:53:18.248Z,2.17
2018-12-22T00:55:24.694Z,1.70
2018-12-22T00:57:31.707Z,1.30
2018-12-22T00:59:38.881Z,1.50
2018-12-22T01:01:45.993Z,1.40
2018-12-22T01:03:52.296Z,1.60
2018-12-22T01:05:58.684Z,2.00
2018-12-22T01:08:05.221Z,2.40
2018-12-22T01:10:11.928Z,2.30
2018-12-22T01:12:18.662Z,2.43
2018-12-22T01:14:25.484Z,1.30
2018-12-22T01:18:48.169Z,2.37
2018-12-22T01:20:54.947Z,1.53
2018-12-22T01:23:01.204Z,1.70
2018-12-22T01:25:07.910Z,1.43
2018-12-22T01:27:14.151Z,1.97
2018-12-22T01:29:20.485Z,1.60
2018-12-22T01:31:26.877Z,1.97
2018-12-22T01:33:33.203Z,4.03
2018-12-22T01:35:40.814Z,7.67
2018-12-22T01:37:48.470Z,1.30
2018-12-22T01:39:54.954Z,1.93
2018-12-22T01:42:01.433Z,1.20
2018-12-22T01:44:08.283Z,1.57
2018-12-22T01:46:15.570Z,1.40
2018-12-22T01:48:22.736Z,1.40
2018-12-22T01:50:29.938Z,1.50
2018-12-22T01:52:36.302Z,1.70
2018-12-22T01:54:43.823Z,1.30
2018-12-22T01:56:50.692Z,1.87
2018-12-22T01:58:57.172Z,5.30
2018-12-22T02:01:03.995Z,2.97
2018-12-22T02:03:11.827Z,1.40
2018-12-22T02:05:18.322Z,1.47
2018-12-22T02:07:24.721Z,1.30
2018-12-22T02:09:31.114Z,1.20
2018-12-22T02:11:38.164Z,1.20
2018-12-22T02:13:46.513Z,1.20
2018-12-22T02:15:53.692Z,1.63
2018-12-22T02:18:00.036Z,1.20
2018-12-22T02:22:30.485Z,1.10
2018-12-22T02:24:37.980Z,1.50
2018-12-22T02:26:44.742Z,1.73
2018-12-22T02:28:56.489Z,1.20
2018-12-22T02:30:59.331Z,1.40
2018-12-22T02:33:05.983Z,1.40
2018-12-22T02:35:12.540Z,1.40
2018-12-22T02:37:19.851Z,1.50
2018-12-22T02:39:26.230Z,1.50
2018-12-22T02:41:33.397Z,1.40
2018-12-22T02:43:41.640Z,1.40
2018-12-22T02:45:49.616Z,1.40
2018-12-22T02:47:56.173Z,1.40
2018-12-22T02:50:03.996Z,2.10
2018-12-22T02:52:10.443Z,1.40
2018-12-22T02:54:16.806Z,1.47
2018-12-22T02:56:24.039Z,1.40
2018-12-22T02:58:30.341Z,1.50
2018-12-22T03:00:36.907Z,1.87
2018-12-22T03:02:43.969Z,1.40
2018-12-22T03:04:50.563Z,1.10
2018-12-22T03:06:57.318Z,1.40
2018-12-22T03:09:06.664Z,1.20
2018-12-22T03:11:14.851Z,2.50
2018-12-22T03:13:23.892Z,1.20
2018-12-22T03:15:31.054Z,1.60
2018-12-22T03:17:37.469Z,3.47
2018-12-22T03:19:44.203Z,1.20
2018-12-22T03:21:52.124Z,1.30
2018-12-22T03:23:59.233Z,1.80
2018-12-22T03:26:06.064Z,1.23
2018-12-22T03:28:14.063Z,2.03
2018-12-22T03:30:21.073Z,1.40
2018-12-22T03:32:27.630Z,1.20
2018-12-22T03:34:34.000Z,2.70
2018-12-22T03:36:40.508Z,1.60
2018-12-22T03:38:46.855Z,7.53
2018-12-22T03:40:53.382Z,1.53
2018-12-22T03:42:59.853Z,1.30
2018-12-22T03:45:09.018Z,1.20
2018-12-22T03:47:15.474Z,3.23
2018-12-22T03:49:21.881Z,1.70
2018-12-22T03:51:28.166Z,2.40
2018-12-22T03:53:34.657Z,1.73
2018-12-22T03:55:43.075Z,1.30
2018-12-22T03:57:50.105Z,1.20
2018-12-22T03:59:57.284Z,1.93
2018-12-22T04:02:04.027Z,1.40
2018-12-22T04:04:11.061Z,2.00
2018-12-22T04:06:18.461Z,1.73
2018-12-22T04:08:25.595Z,2.07
2018-12-22T04:10:31.930Z,3.10
2018-12-22T04:12:38.667Z,2.53
2018-12-22T04:14:45.134Z,1.80
2018-12-22T04:16:51.455Z,2.87
2018-12-22T04:18:58.588Z,3.20
2018-12-22T04:21:05.750Z,2.03
2018-12-22T04:23:12.123Z,1.40
2018-12-22T04:25:19.376Z,1.70
2018-12-22T04:27:26.585Z,1.20
2018-12-22T04:29:34.103Z,1.30
2018-12-22T04:31:41.478Z,1.80
2018-12-22T04:33:48.310Z,2.20
2018-12-22T04:35:55.297Z,1.40
2018-12-22T04:38:01.517Z,3.27
2018-12-22T04:40:09.485Z,1.40
2018-12-22T04:42:16.159Z,1.47
2018-12-22T04:44:22.876Z,1.20
2018-12-22T04:46:30.574Z,1.40
2018-12-22T04:48:37.820Z,1.50
2018-12-22T04:50:45.235Z,1.20
2018-12-22T04:52:51.636Z,3.30
2018-12-22T04:54:59.813Z,1.30
2018-12-22T04:57:07.408Z,4.50
2018-12-22T04:59:13.869Z,1.40
2018-12-22T05:01:21.428Z,1.80
2018-12-22T05:03:30.780Z,1.97
2018-12-22T05:05:37.309Z,2.33
2018-12-22T05:07:46.883Z,1.73
2018-12-22T05:09:53.328Z,1.20
2018-12-22T05:12:01.071Z,1.53
2018-12-22T05:14:08.370Z,2.13
2018-12-22T05:16:19.083Z,1.50
2018-12-22T05:18:27.807Z,1.43
2018-12-22T05:20:34.086Z,2.03
2018-12-22T05:22:40.658Z,1.17
2018-12-22T05:24:47.146Z,1.90
2018-12-22T05:26:53.652Z,2.80
2018-12-22T05:29:00.008Z,3.03
2018-12-22T05:31:09.252Z,1.90
2018-12-22T05:33:17.756Z,3.23
2018-12-22T05:35:24.958Z,2.07
2018-12-22T05:37:31.765Z,6.97
2018-12-22T05:39:39.841Z,1.30
2018-12-22T05:41:46.244Z,1.70
2018-12-22T05:43:52.798Z,1.50
2018-12-22T05:46:00.593Z,1.53
2018-12-22T05:48:07.263Z,1.40
2018-12-22T05:50:14.824Z,1.70
2018-12-22T05:52:21.615Z,2.07
2018-12-22T05:54:28.222Z,1.60
2018-12-22T05:56:34.517Z,2.17
2018-12-22T05:58:41.093Z,1.97
2018-12-22T06:00:49.538Z,2.63
2018-12-22T06:02:56.668Z,2.23
2018-12-22T06:05:02.998Z,3.93
2018-12-22T06:07:17.075Z,2.10
2018-12-22T06:09:25.916Z,1.67
2018-12-22T06:11:32.623Z,1.93
2018-12-22T06:13:39.809Z,2.63
2018-12-22T06:15:46.382Z,2.20
2018-12-22T06:17:54.593Z,1.80
2018-12-22T06:20:01.303Z,2.83
2018-12-22T06:22:09.895Z,5.20
2018-12-22T06:24:19.506Z,2.27
2018-12-22T06:26:27.510Z,2.73
2018-12-22T06:28:35.812Z,2.20
2018-12-22T06:30:42.114Z,5.83
2018-12-22T06:32:48.541Z,1.93
2018-12-22T06:34:55.037Z,3.20
2018-12-22T06:37:01.581Z,4.57
2018-12-22T06:39:08.285Z,2.83
2018-12-22T06:41:15.456Z,4.43
2018-12-22T06:43:23.025Z,1.40
2018-12-22T06:45:31.487Z,2.23
2018-12-22T06:47:38.334Z,3.00
2018-12-22T06:49:44.857Z,2.03
2018-12-22T06:51:52.264Z,4.97
2018-12-22T06:53:58.870Z,6.80
2018-12-22T06:56:05.661Z,2.70
2018-12-22T06:58:12.167Z,1.60
2018-12-22T07:00:19.857Z,3.57
2018-12-22T07:02:28.500Z,1.83
2018-12-22T07:04:35.518Z,4.07
2018-12-22T07:06:45.613Z,2.80
2018-12-22T07:08:52.463Z,5.23
2018-12-22T07:11:00.924Z,3.73
2018-12-22T07:13:07.958Z,4.83
2018-12-22T07:15:15.488Z,1.60
2018-12-22T07:19:39.644Z,2.53
2018-12-22T07:21:48.214Z,3.10
2018-12-22T07:23:56.811Z,3.60
2018-12-22T07:26:04.265Z,8.83
2018-12-22T07:28:10.679Z,3.87
2018-12-22T07:30:16.957Z,4.20
2018-12-22T07:32:23.499Z,2.93
2018-12-22T07:34:30.094Z,2.93
2018-12-22T07:36:38.031Z,3.70
2018-12-22T07:38:46.610Z,4.27
2018-12-22T07:40:53.563Z,2.30
2018-12-22T07:43:00.987Z,4.80
2018-12-22T07:45:09.026Z,3.90
2018-12-22T07:47:19.220Z,7.83
2018-12-22T07:49:26.933Z,7.07
2018-12-22T07:51:33.923Z,4.37
2018-12-22T07:53:41.312Z,3.20
2018-12-22T07:55:48.408Z,3.40
2018-12-22T07:57:56.858Z,2.00
2018-12-22T08:00:03.495Z,3.00
2018-12-22T08:02:10.252Z,3.27
2018-12-22T08:04:16.718Z,3.67
2018-12-22T08:06:23.136Z,4.77
2018-12-22T08:08:29.560Z,1.90
2018-12-22T08:10:36.841Z,1.67
2018-12-22T08:12:43.224Z,3.87
2018-12-22T08:14:50.127Z,4.40
2018-12-22T08:16:58.426Z,2.00
2018-12-22T08:19:05.570Z,2.93
2018-12-22T08:21:12.905Z,5.77
2018-12-22T08:23:19.465Z,3.30
2018-12-22T08:25:26.775Z,9.73
2018-12-22T08:27:34.057Z,2.63
2018-12-22T08:29:40.570Z,4.13
2018-12-22T08:31:48.459Z,3.53
2018-12-22T08:33:55.736Z,3.27
2018-12-22T08:36:03.565Z,3.83
2018-12-22T08:38:12.364Z,5.47
2018-12-22T08:40:19.391Z,6.60
2018-12-22T08:42:25.996Z,5.37
2018-12-22T08:44:32.506Z,5.67
2018-12-22T08:46:39.751Z,3.50
2018-12-22T08:48:48.052Z,3.97
2018-12-22T08:50:56.086Z,3.20
2018-12-22T08:53:02.363Z,4.43
2018-12-22T08:55:09.910Z,3.20
2018-12-22T08:57:17.770Z,4.50
2018-12-22T08:59:24.523Z,10.10
2018-12-22T09:01:30.801Z,4.07
2018-12-22T09:03:37.170Z,4.80
2018-12-22T09:05:43.932Z,7.07
2018-12-22T09:07:52.144Z,3.80
2018-12-22T09:09:58.774Z,5.53
2018-12-22T09:12:05.218Z,5.87
2018-12-22T09:14:12.047Z,3.67
2018-12-22T09:16:18.437Z,4.90
2018-12-22T09:18:25.633Z,3.27
2018-12-22T09:20:34.169Z,3.50
2018-12-22T09:22:41.087Z,3.60
2018-12-22T09:24:48.430Z,4.10
2018-12-22T09:26:55.791Z,4.73
2018-12-22T09:29:02.086Z,4.00
2018-12-22T09:31:08.445Z,3.70
2018-12-22T09:33:14.729Z,3.70
2018-12-22T09:35:20.910Z,5.40
2018-12-22T09:37:27.281Z,5.30
2018-12-22T09:39:34.077Z,4.03
2018-12-22T09:41:40.731Z,9.43
2018-12-22T09:43:47.317Z,3.20
2018-12-22T09:45:53.859Z,5.03
2018-12-22T09:48:00.572Z,3.00
2018-12-22T09:50:11.363Z,4.40
2018-12-22T09:52:18.428Z,2.73
2018-12-22T09:54:24.601Z,2.70
2018-12-22T09:56:30.906Z,3.43
2018-12-22T09:58:37.194Z,3.83
2018-12-22T10:00:43.652Z,5.90
2018-12-22T10:02:50.353Z,5.60
2018-12-22T10:04:56.642Z,4.50
2018-12-22T10:07:05.347Z,8.30
2018-12-22T10:09:11.687Z,6.30
2018-12-22T10:11:17.891Z,7.73
2018-12-22T10:13:24.961Z,6.27
2018-12-22T10:15:31.189Z,4.90
2018-12-22T10:17:38.270Z,4.30
2018-12-22T10:19:45.112Z,10.80
2018-12-22T10:21:51.357Z,5.67
2018-12-22T10:23:57.623Z,5.33
2018-12-22T10:26:03.939Z,2.70
2018-12-22T10:28:10.167Z,6.30
2018-12-22T10:30:18.194Z,3.60
2018-12-22T10:32:24.533Z,4.73
2018-12-22T10:34:31.564Z,7.60
2018-12-22T10:36:38.159Z,2.80
2018-12-22T10:38:44.518Z,9.77
2018-12-22T10:40:51.166Z,5.87
2018-12-22T10:42:57.445Z,5.83
2018-12-22T10:45:03.942Z,6.60
2018-12-22T10:47:10.911Z,6.10
2018-12-22T10:49:17.241Z,7.47
2018-12-22T10:51:24.447Z,5.00
2018-12-22T10:53:32.066Z,4.57
2018-12-22T10:55:38.196Z,5.33
2018-12-22T10:57:44.315Z,6.60
2018-12-22T10:59:50.545Z,5.43
2018-12-22T11:01:57.162Z,5.40
2018-12-22T11:04:03.964Z,14.23
2018-12-22T11:06:11.558Z,6.90
2018-12-22T11:08:17.687Z,3.97
2018-12-22T11:10:26.843Z,10.30
2018-12-22T11:12:33.073Z,5.40
2018-12-22T11:14:39.353Z,6.77
2018-12-22T11:16:45.554Z,5.97
2018-12-22T11:18:51.791Z,4.43
2018-12-22T11:20:57.938Z,8.57
2018-12-22T11:23:04.584Z,7.90
2018-12-22T11:25:22.393Z,2.53
2018-12-22T11:27:28.592Z,3.80
2018-12-22T11:29:35.341Z,6.03
2018-12-22T11:31:41.536Z,3.43
2018-12-22T11:33:47.929Z,5.20
2018-12-22T11:35:54.405Z,2.63
2018-12-22T11:38:00.764Z,5.40
2018-12-22T11:40:09.171Z,3.57
2018-12-22T11:42:16.829Z,3.67
2018-12-22T11:44:23.083Z,7.90
2018-12-22T11:46:29.578Z,6.40
2018-12-22T11:48:58.738Z,7.27
2018-12-22T11:51:04.913Z,5.13
2018-12-22T11:53:11.917Z,6.50
2018-12-22T11:55:18.945Z,7.30
2018-12-22T11:57:25.944Z,4.87
2018-12-22T11:59:32.200Z,11.50
2018-12-22T12:01:43.492Z,3.87
2018-12-22T12:03:48.752Z,2.80
2018-12-22T12:05:55.069Z,4.00
2018-12-22T12:08:01.307Z,2.90
2018-12-22T12:10:10.749Z,3.57
2018-12-22T12:12:17.098Z,2.63
2018-12-22T12:14:24.007Z,5.53
2018-12-22T12:17:42.609Z,2.60
2018-12-22T12:19:48.986Z,6.07
2018-12-22T12:21:55.254Z,4.33
2018-12-22T12:24:03.188Z,4.47
2018-12-22T12:26:10.722Z,2.77
2018-12-22T12:28:16.979Z,5.93
2018-12-22T12:30:23.749Z,2.60
2018-12-22T12:32:29.877Z,3.90
2018-12-22T12:34:36.288Z,4.97
2018-12-22T12:36:42.649Z,10.30
2018-12-22T12:38:49.232Z,6.57
2018-12-22T12:40:56.335Z,6.47
2018-12-22T12:43:02.997Z,13.93
2018-12-22T12:45:32.144Z,8.20
2018-12-22T12:48:01.895Z,6.10
2018-12-22T12:52:30.002Z,5.50
2018-12-22T12:54:36.303Z,4.30
2018-12-22T12:56:54.843Z,4.40
2018-12-22T12:59:08.316Z,4.57
2018-12-22T13:01:14.890Z,3.93
2018-12-22T13:03:21.096Z,4.60
2018-12-22T13:05:27.265Z,5.83
2018-12-22T13:07:33.810Z,2.80
2018-12-22T13:09:40.095Z,2.27
2018-12-22T13:11:46.522Z,3.50
2018-12-22T13:14:00.173Z,2.87
2018-12-22T13:16:06.476Z,2.90
2018-12-22T13:18:12.753Z,3.70
2018-12-22T13:20:19.280Z,5.90
2018-12-22T13:22:25.636Z,2.30
2018-12-22T13:24:31.933Z,7.67
2018-12-22T13:26:38.263Z,4.50
2018-12-22T13:28:44.891Z,4.10
2018-12-22T13:30:51.086Z,4.90
2018-12-22T13:32:58.701Z,4.47
2018-12-22T13:35:05.739Z,3.20
2018-12-22T13:37:12.843Z,4.60
2018-12-22T13:39:25.563Z,8.60
2018-12-22T13:41:31.990Z,5.60
2018-12-22T13:43:38.136Z,4.73
2018-12-22T13:45:44.707Z,5.10
2018-12-22T13:47:52.373Z,7.83
2018-12-22T13:50:00.000Z,9.87
2018-12-22T13:52:06.226Z,7.93
2018-12-22T13:54:14.310Z,8.80
2018-12-22T13:56:20.515Z,8.87
2018-12-22T13:58:28.118Z,6.20
2018-12-22T14:02:59.491Z,3.40
2018-12-22T14:05:08.267Z,4.10
2018-12-22T14:07:15.095Z,6.00
2018-12-22T14:09:21.378Z,5.87
2018-12-22T14:11:27.891Z,11.50
2018-12-22T14:13:34.167Z,4.40
2018-12-22T14:15:51.799Z,7.77
2018-12-22T14:18:10.701Z,6.73
2018-12-22T14:20:19.602Z,8.13
2018-12-22T14:22:26.413Z,6.67
2018-12-22T14:24:44.340Z,5.90
2018-12-22T14:26:51.567Z,6.03
2018-12-22T14:28:58.126Z,12.77
2018-12-22T14:31:04.914Z,9.17
2018-12-22T14:33:12.249Z,6.13
2018-12-22T14:36:00.319Z,9.33
2018-12-22T14:38:07.153Z,7.07
2018-12-22T14:40:14.323Z,8.40
2018-12-22T14:42:20.771Z,13.40
2018-12-22T14:44:27.612Z,5.00
2018-12-22T14:46:34.233Z,6.50
2018-12-22T14:48:40.496Z,5.57
2018-12-22T14:50:47.809Z,9.63
2018-12-22T14:52:55.136Z,6.10
2018-12-22T14:55:01.605Z,3.33
2018-12-22T14:57:07.745Z,9.20
2018-12-22T14:59:18.896Z,7.20
2018-12-22T15:01:25.224Z,8.67
2018-12-22T15:03:31.674Z,7.30
2018-12-22T15:05:39.045Z,4.73
2018-12-22T15:07:45.309Z,5.03
2018-12-22T15:09:52.354Z,7.37
2018-12-22T15:11:58.738Z,6.80
2018-12-22T15:14:05.095Z,8.33
2018-12-22T15:16:11.416Z,4.90
2018-12-22T15:18:18.437Z,5.57
2018-12-22T15:20:27.723Z,7.20
2018-12-22T15:22:34.138Z,7.00
2018-12-22T15:24:40.319Z,6.37
2018-12-22T15:26:46.956Z,4.80
2018-12-22T15:28:53.422Z,4.33
2018-12-22T15:30:59.630Z,5.30
2018-12-22T15:33:05.905Z,4.90
2018-12-22T15:35:12.431Z,5.50
2018-12-22T15:37:18.643Z,8.57
2018-12-22T15:39:25.165Z,2.73
2018-12-22T15:41:31.337Z,4.70
2018-12-22T15:43:37.565Z,2.80
2018-12-22T15:45:44.712Z,4.17
2018-12-22T15:47:51.327Z,3.47
2018-12-22T15:49:57.494Z,6.70
2018-12-22T15:52:04.296Z,5.13
2018-12-22T15:54:10.412Z,7.90
2018-12-22T15:56:16.779Z,5.87
2018-12-22T15:58:22.989Z,7.00
2018-12-22T16:00:29.094Z,3.90
2018-12-22T16:02:36.062Z,2.27
2018-12-22T16:04:42.416Z,4.23
2018-12-22T16:06:48.612Z,3.50
2018-12-22T16:08:55.369Z,6.83
2018-12-22T16:11:01.522Z,4.17
2018-12-22T16:13:07.787Z,3.33
2018-12-22T16:15:17.498Z,5.20
2018-12-22T16:17:23.739Z,4.20
2018-12-22T16:19:29.867Z,2.80
2018-12-22T16:21:35.998Z,7.93
2018-12-22T16:23:42.277Z,4.80
2018-12-22T16:25:48.745Z,3.73
2018-12-22T16:28:00.528Z,5.23
2018-12-22T16:30:15.267Z,6.10
2018-12-22T16:32:21.614Z,4.63
2018-12-22T16:34:28.408Z,5.27
2018-12-22T16:36:34.682Z,5.50
2018-12-22T16:38:41.818Z,4.90
2018-12-22T16:40:48.012Z,4.23
2018-12-22T16:42:54.165Z,6.70
2018-12-22T16:45:01.799Z,4.07
2018-12-22T16:47:08.109Z,5.90
2018-12-22T16:49:16.346Z,7.10
2018-12-22T16:51:26.527Z,5.07
2018-12-22T16:53:32.954Z,4.50
2018-12-22T16:55:39.176Z,4.43
2018-12-22T16:57:53.626Z,5.00
2018-12-22T16:59:59.909Z,11.93
2018-12-22T17:02:19.225Z,13.97
2018-12-22T17:04:25.570Z,8.37
2018-12-22T17:06:33.602Z,12.37
2018-12-22T17:08:39.729Z,19.23
2018-12-22T17:10:50.307Z,15.57
2018-12-22T17:12:56.445Z,15.70
2018-12-22T17:15:03.780Z,13.30
2018-12-22T17:17:10.157Z,11.57
2018-12-22T17:19:16.410Z,15.67
2018-12-22T17:21:40.196Z,9.73
2018-12-22T17:23:52.966Z,7.13
2018-12-22T17:26:03.912Z,11.20
2018-12-22T17:28:10.609Z,8.47
2018-12-22T17:30:16.953Z,8.83
2018-12-22T17:32:23.634Z,11.13
2018-12-22T17:34:30.021Z,7.27
2018-12-22T17:36:37.511Z,7.90
2018-12-22T17:38:44.017Z,14.00
2018-12-22T17:40:50.344Z,11.57
2018-12-22T17:42:57.045Z,13.43
2018-12-22T17:45:04.038Z,9.07
2018-12-22T17:47:10.281Z,8.73
2018-12-22T17:49:16.383Z,10.57
2018-12-22T17:51:22.564Z,8.90
2018-12-22T17:53:28.789Z,7.07
2018-12-22T17:55:35.140Z,3.50
2018-12-22T17:57:41.349Z,9.17
2018-12-22T17:59:47.719Z,8.17
2018-12-22T18:01:53.925Z,5.13
2018-12-22T18:04:01.310Z,7.03
2018-12-22T18:06:07.469Z,7.33
2018-12-22T18:08:13.639Z,7.00
2018-12-22T18:10:19.907Z,16.83
2018-12-22T18:12:26.028Z,6.87
2018-12-22T18:14:32.210Z,8.80
2018-12-22T18:16:38.371Z,11.37
2018-12-22T18:18:44.576Z,15.03
2018-12-22T18:20:50.950Z,7.97
2018-12-22T18:22:57.570Z,8.97
2018-12-22T18:25:04.120Z,9.73
2018-12-22T18:27:10.419Z,8.40
2018-12-22T18:29:16.797Z,8.10
2018-12-22T18:31:23.020Z,8.50
2018-12-22T18:33:35.918Z,6.03
2018-12-22T18:35:37.265Z,6.73
2018-12-22T18:37:43.467Z,3.87
2018-12-22T18:39:49.782Z,8.03
2018-12-22T18:41:55.891Z,6.83
2018-12-22T18:44:02.796Z,10.40
2018-12-22T18:46:09.633Z,5.80
2018-12-22T18:48:15.798Z,7.07
2018-12-22T18:50:26.233Z,8.20
2018-12-22T18:52:32.998Z,8.50
2018-12-22T18:54:39.351Z,8.40
2018-12-22T18:56:45.620Z,15.50
2018-12-22T18:58:52.699Z,10.60
2018-12-22T19:00:59.357Z,19.50
2018-12-22T19:03:05.524Z,4.43
2018-12-22T19:05:12.321Z,5.00
2018-12-22T19:07:20.263Z,8.07
2018-12-22T19:09:30.470Z,5.93
2018-12-22T19:11:37.256Z,6.10
2018-12-22T19:13:47.640Z,7.77
2018-12-22T19:15:54.509Z,8.13
2018-12-22T19:18:00.720Z,10.87
2018-12-22T19:20:13.426Z,4.87
2018-12-22T19:22:19.777Z,9.07
2018-12-22T19:24:25.919Z,7.83
2018-12-22T19:26:32.234Z,7.97
2018-12-22T19:28:38.433Z,4.70
2018-12-22T19:30:44.811Z,2.57
2018-12-22T19:32:51.462Z,4.70
2018-12-22T19:34:58.107Z,4.00
2018-12-22T19:37:04.918Z,4.83
2018-12-22T19:39:19.071Z,2.13
2018-12-22T19:41:26.457Z,2.47
2018-12-22T19:43:36.828Z,4.67
2018-12-22T19:45:45.597Z,4.20
2018-12-22T19:47:52.003Z,4.87
2018-12-22T19:49:58.186Z,4.33
2018-12-22T19:52:04.430Z,4.07
2018-12-22T19:54:10.612Z,4.40
2018-12-22T19:56:17.368Z,3.90
2018-12-22T19:58:24.104Z,7.67
2018-12-22T20:00:30.288Z,5.57
2018-12-22T20:02:36.454Z,4.57
2018-12-22T20:04:42.618Z,4.17
2018-12-22T20:06:48.890Z,7.57
2018-12-22T20:08:55.113Z,3.67
2018-12-22T20:11:02.583Z,5.00
2018-12-22T20:13:08.800Z,2.43
2018-12-22T20:15:15.243Z,3.23
2018-12-22T20:17:21.909Z,4.40
2018-12-22T20:19:28.241Z,3.40
2018-12-22T20:21:34.542Z,2.43
2018-12-22T20:23:40.782Z,3.20
2018-12-22T20:25:47.785Z,3.63
2018-12-22T20:27:55.123Z,5.97
2018-12-22T20:30:01.319Z,3.20
2018-12-22T20:32:07.550Z,4.60
2018-12-22T20:34:14.855Z,4.27
2018-12-22T20:36:22.146Z,3.23
2018-12-22T20:38:28.937Z,2.30
2018-12-22T20:40:35.251Z,6.87
2018-12-22T20:42:41.881Z,2.53
2018-12-22T20:44:48.083Z,1.57
2018-12-22T20:46:55.231Z,3.10
2018-12-22T20:49:01.411Z,4.67
2018-12-22T20:51:07.652Z,4.53
2018-12-22T20:53:14.271Z,7.27
2018-12-22T20:55:20.590Z,7.37
2018-12-22T20:57:26.956Z,9.90
2018-12-22T20:59:33.560Z,3.73
2018-12-22T21:01:39.760Z,6.47
2018-12-22T21:03:46.076Z,5.73
2018-12-22T21:05:59.559Z,8.73
2018-12-22T21:10:23.186Z,5.37
2018-12-22T21:12:29.582Z,6.30
2018-12-22T21:14:35.978Z,11.23
2018-12-22T21:16:42.749Z,12.50
2018-12-22T21:18:49.150Z,8.43
2018-12-22T21:20:55.389Z,10.30
2018-12-22T21:23:01.922Z,12.00
2018-12-22T21:25:08.200Z,7.00
2018-12-22T21:27:15.717Z,7.00
2018-12-22T21:29:21.940Z,10.70
2018-12-22T21:31:28.865Z,8.00
2018-12-22T21:33:35.965Z,11.50
2018-12-22T21:35:52.796Z,7.00
2018-12-22T21:37:51.074Z,10.53
2018-12-22T21:39:58.882Z,13.70
2018-12-22T21:42:05.142Z,14.03
2018-12-22T21:44:11.525Z,13.93
2018-12-22T21:46:18.526Z,6.70
2018-12-22T21:48:25.491Z,5.40
2018-12-22T21:50:31.679Z,12.73
2018-12-22T21:52:38.521Z,7.13
2018-12-22T21:54:45.664Z,18.87
2018-12-22T21:56:51.978Z,7.07
2018-12-22T21:58:58.530Z,13.53
2018-12-22T22:03:20.171Z,11.73
2018-12-22T22:05:26.433Z,8.40
2018-12-22T22:07:32.770Z,6.07
2018-12-22T22:09:39.793Z,6.10
2018-12-22T22:11:46.442Z,6.93
2018-12-22T22:13:52.818Z,6.50
2018-12-22T22:15:59.057Z,5.87
2018-12-22T22:18:05.442Z,11.17
2018-12-22T22:20:12.378Z,5.27
2018-12-22T22:22:18.699Z,7.70
2018-12-22T22:24:24.909Z,5.43
2018-12-22T22:26:33.113Z,7.83
2018-12-22T22:28:39.923Z,4.10
2018-12-22T22:30:46.181Z,8.77
2018-12-22T22:32:52.576Z,6.60
2018-12-22T22:34:58.900Z,4.17
2018-12-22T22:37:05.470Z,7.87
2018-12-22T22:39:11.842Z,2.90
2018-12-22T22:41:17.977Z,13.60
2018-12-22T22:43:24.824Z,6.53
2018-12-22T22:45:31.741Z,8.30
2018-12-22T22:47:37.933Z,5.77
2018-12-22T22:49:44.554Z,4.67
2018-12-22T22:51:50.950Z,11.40
2018-12-22T22:53:57.193Z,8.90
2018-12-22T22:56:03.417Z,7.73
2018-12-22T22:58:09.608Z,4.97
2018-12-22T23:00:21.414Z,3.70
2018-12-22T23:02:27.744Z,7.53
2018-12-22T23:04:34.209Z,6.13
2018-12-22T23:06:40.612Z,7.43
2018-12-22T23:08:48.165Z,9.50
2018-12-22T23:10:54.386Z,6.13
2018-12-22T23:13:00.626Z,9.73
2018-12-22T23:15:07.070Z,9.90
2018-12-22T23:17:13.317Z,12.10
2018-12-22T23:19:19.719Z,10.27
2018-12-22T23:21:25.887Z,11.03
2018-12-22T23:23:32.102Z,13.60
2018-12-22T23:25:39.742Z,10.70
2018-12-22T23:27:46.705Z,8.13
2018-12-22T23:29:53.365Z,10.23
2018-12-22T23:31:59.690Z,15.80
2018-12-22T23:34:05.811Z,12.30
2018-12-22T23:36:12.795Z,7.87
2018-12-22T23:38:19.398Z,8.30
2018-12-22T23:40:25.751Z,10.07
2018-12-22T23:42:32.030Z,9.73
2018-12-22T23:44:38.196Z,8.53
2018-12-22T23:46:45.480Z,12.83
2018-12-22T23:48:51.765Z,9.60
2018-12-22T23:50:58.274Z,13.73
2018-12-22T23:53:04.447Z,10.13
2018-12-22T23:55:11.507Z,11.87
2018-12-22T23:57:17.869Z,6.13
2018-12-22T23:59:24.176Z,13.20
